Time;durP1;ratioP1;P1;durP2;ratioP2;P2;SDS_P1;SDS_P2;PMS_P1;PMS_P2;Temp;Humidity;BMP_temperature;BMP_pressure;BME280_temperature;BME280_humidity;BME280_pressure;Samples;Min_cycle;Max_cycle;Signal;HPM_P1;HPM_P2
2023/03/03 00:01:03;;;;;;;24.83;15.07;;;6.60;99.90;;;;;;7389533;19;20144;-76
2023/03/03 00:03:29;;;;;;;27.40;15.37;;;6.60;99.90;;;;;;7387685;19;20157;-74
2023/03/03 00:05:55;;;;;;;26.13;15.57;;;6.60;99.90;;;;;;7388009;19;20134;-74
2023/03/03 00:08:21;;;;;;;27.33;14.80;;;6.60;99.90;;;;;;7389701;19;20146;-75
2023/03/03 00:10:47;;;;;;;24.73;15.33;;;6.60;99.90;;;;;;7389958;19;20555;-76
2023/03/03 00:13:23;;;;;;;26.00;15.27;;;6.50;99.90;;;;;;7387827;19;20131;-74
2023/03/03 00:15:50;;;;;;;28.77;15.37;;;6.30;99.90;;;;;;7388550;19;20150;-75
2023/03/03 00:18:22;;;;;;;27.00;16.30;;;6.30;99.90;;;;;;7386430;19;20150;-75
2023/03/03 00:20:54;;;;;;;28.73;15.20;;;6.40;99.90;;;;;;7390595;19;20762;-76
2023/03/03 00:23:29;;;;;;;29.63;16.33;;;6.30;99.90;;;;;;7387900;19;20146;-75
2023/03/03 00:25:55;;;;;;;27.20;15.07;;;5.80;99.90;;;;;;7387784;19;20135;-75
2023/03/03 00:28:28;;;;;;;28.07;14.40;;;5.90;99.90;;;;;;7388299;19;20287;-75
2023/03/03 00:30:57;;;;;;;27.83;15.60;;;6.00;99.90;;;;;;7387774;19;20146;-75
2023/03/03 00:33:40;;;;;;;29.00;15.67;;;5.90;99.90;;;;;;7388529;19;20147;-76
2023/03/03 00:36:35;;;;;;;29.53;15.33;;;5.80;99.90;;;;;;7389455;19;20142;-76
2023/03/03 00:39:20;;;;;;;30.37;15.97;;;5.90;99.90;;;;;;7386077;19;20214;-75
2023/03/03 00:41:47;;;;;;;32.70;15.83;;;5.90;99.90;;;;;;7388316;19;20147;-75
2023/03/03 00:44:36;;;;;;;26.00;15.33;;;5.80;99.90;;;;;;7386597;19;20138;-76
2023/03/03 00:47:36;;;;;;;29.57;15.73;;;5.90;99.90;;;;;;7387059;19;20156;-75
2023/03/03 00:50:05;;;;;;;24.00;14.30;;;6.00;99.90;;;;;;7387275;19;20214;-76
2023/03/03 00:52:52;;;;;;;32.63;15.83;;;6.00;99.90;;;;;;7386641;19;20221;-75
2023/03/03 00:55:18;;;;;;;28.77;16.53;;;6.00;99.90;;;;;;7384751;19;20154;-76
2023/03/03 00:57:44;;;;;;;29.87;16.90;;;5.30;99.90;;;;;;7386795;19;20503;-76
2023/03/03 01:00:13;;;;;;;27.60;14.93;;;5.40;99.90;;;;;;7385654;19;20154;-75
2023/03/03 01:02:44;;;;;;;29.50;15.73;;;5.70;99.90;;;;;;7387751;19;20425;-76
2023/03/03 01:05:12;;;;;;;28.83;15.97;;;5.90;99.90;;;;;;7385225;19;20154;-74
2023/03/03 01:07:41;;;;;;;27.60;15.33;;;6.00;99.90;;;;;;7389693;19;20134;-75
2023/03/03 01:10:07;;;;;;;26.03;15.63;;;5.90;99.90;;;;;;7393751;19;20155;-76
2023/03/03 01:12:37;;;;;;;26.37;15.40;;;5.80;99.90;;;;;;7394529;19;20143;-75
2023/03/03 01:15:08;;;;;;;30.60;16.87;;;5.70;99.90;;;;;;7395073;19;20143;-75
2023/03/03 01:17:35;;;;;;;27.47;15.50;;;5.90;99.90;;;;;;7391878;19;20460;-76
2023/03/03 01:20:02;;;;;;;27.97;15.23;;;6.10;99.90;;;;;;7394183;19;20146;-76
2023/03/03 01:22:27;;;;;;;28.43;16.57;;;6.10;99.90;;;;;;7393874;19;20147;-74
2023/03/03 01:24:53;;;;;;;34.57;16.60;;;6.20;99.90;;;;;;7395148;19;20259;-75
2023/03/03 01:27:19;;;;;;;29.53;15.67;;;6.20;99.90;;;;;;7395375;19;20135;-74
2023/03/03 01:29:44;;;;;;;28.30;15.83;;;6.00;99.90;;;;;;7393949;19;20154;-74
2023/03/03 01:32:10;;;;;;;27.73;16.17;;;6.00;99.90;;;;;;7393473;19;20148;-76
2023/03/03 01:34:36;;;;;;;28.07;15.97;;;5.80;99.90;;;;;;7394934;19;20142;-75
2023/03/03 01:37:01;;;;;;;26.63;15.47;;;5.80;99.90;;;;;;7393443;19;20526;-75
2023/03/03 01:39:27;;;;;;;27.47;15.33;;;5.80;99.90;;;;;;7391551;19;20146;-74
2023/03/03 01:41:53;;;;;;;29.77;15.60;;;5.90;99.90;;;;;;7390922;19;20537;-76
2023/03/03 01:44:19;;;;;;;27.27;15.50;;;5.80;99.90;;;;;;7387455;19;20234;-75
2023/03/03 01:47:06;;;;;;;26.00;14.47;;;5.90;99.90;;;;;;7391936;19;20138;-75
2023/03/03 01:49:59;;;;;;;27.93;15.87;;;5.70;99.90;;;;;;7393056;19;20139;-75
2023/03/03 01:52:33;;;;;;;27.50;15.43;;;5.60;99.90;;;;;;7393258;19;20150;-75
2023/03/03 01:55:03;;;;;;;32.13;16.43;;;5.70;99.90;;;;;;7393704;19;20145;-76
2023/03/03 01:57:35;;;;;;;27.10;16.13;;;5.90;99.90;;;;;;7386239;19;20134;-76
2023/03/03 02:00:04;;;;;;;23.13;14.27;;;5.90;99.90;;;;;;7392156;19;20134;-76
2023/03/03 02:02:31;;;;;;;28.03;15.53;;;5.90;99.90;;;;;;7391233;19;20598;-74
2023/03/03 02:04:57;;;;;;;27.57;16.27;;;5.80;99.90;;;;;;7390123;19;20510;-76
2023/03/03 02:07:27;;;;;;;27.60;15.43;;;5.80;99.90;;;;;;7388808;19;20150;-75
2023/03/03 02:10:08;;;;;;;28.20;16.13;;;5.80;99.90;;;;;;7393517;19;20250;-74
2023/03/03 02:12:39;;;;;;;28.33;15.60;;;5.80;99.90;;;;;;7391632;19;20138;-76
2023/03/03 02:15:31;;;;;;;31.50;16.13;;;5.80;99.90;;;;;;7393278;19;20138;-75
2023/03/03 02:18:09;;;;;;;26.67;16.57;;;5.70;99.90;;;;;;7390057;19;20580;-75
2023/03/03 02:20:50;;;;;;;29.27;16.97;;;5.80;99.90;;;;;;7390375;19;20150;-75
2023/03/03 02:23:38;;;;;;;30.37;17.03;;;5.90;99.90;;;;;;7391356;19;20249;-75
2023/03/03 02:26:35;;;;;;;27.53;15.77;;;5.90;99.90;;;;;;7390693;19;20993;-75
2023/03/03 02:29:01;;;;;;;32.17;15.50;;;5.90;99.90;;;;;;7390140;19;20500;-75
2023/03/03 02:31:29;;;;;;;25.87;15.70;;;5.80;99.90;;;;;;7393224;19;20135;-76
2023/03/03 02:33:55;;;;;;;27.20;15.77;;;5.90;99.90;;;;;;7390074;19;20153;-75
2023/03/03 02:36:32;;;;;;;32.50;16.57;;;5.90;99.90;;;;;;7391552;19;20150;-76
2023/03/03 02:39:01;;;;;;;27.47;15.53;;;5.90;99.90;;;;;;7389032;19;20138;-76
2023/03/03 02:41:39;;;;;;;28.13;16.10;;;5.80;99.90;;;;;;7391867;19;20166;-75
2023/03/03 02:44:15;;;;;;;27.43;15.93;;;5.80;99.90;;;;;;7391054;19;20747;-74
2023/03/03 02:46:44;;;;;;;28.13;15.27;;;5.80;99.90;;;;;;7390434;19;20146;-76
2023/03/03 02:49:15;;;;;;;27.17;15.37;;;5.80;99.90;;;;;;7390683;19;20145;-76
2023/03/03 02:51:42;;;;;;;26.57;16.00;;;5.80;99.90;;;;;;7392313;19;20624;-76
2023/03/03 02:54:10;;;;;;;29.97;17.13;;;5.80;99.90;;;;;;7391136;19;20127;-77
2023/03/03 02:56:36;;;;;;;33.47;16.70;;;5.80;99.90;;;;;;7391562;19;20147;-76
2023/03/03 02:59:02;;;;;;;29.73;16.60;;;5.70;99.90;;;;;;7388958;19;20146;-75
2023/03/03 03:01:30;;;;;;;32.37;17.63;;;5.80;99.90;;;;;;7390789;19;20150;-74
2023/03/03 03:03:57;;;;;;;30.80;16.80;;;6.00;99.90;;;;;;7388285;19;20154;-76
2023/03/03 03:06:23;;;;;;;30.50;16.77;;;5.90;99.90;;;;;;7390615;19;20158;-75
2023/03/03 03:08:49;;;;;;;26.07;15.43;;;6.00;99.90;;;;;;7391380;19;20138;-76
2023/03/03 03:11:14;;;;;;;29.03;16.10;;;5.90;99.90;;;;;;7390962;19;20510;-75
2023/03/03 03:13:40;;;;;;;27.27;15.00;;;6.00;99.90;;;;;;7391902;19;20135;-76
2023/03/03 03:16:06;;;;;;;29.33;16.30;;;6.10;99.90;;;;;;7390526;19;20139;-75
2023/03/03 03:18:32;;;;;;;27.63;16.00;;;6.10;99.90;;;;;;7388411;19;20138;-75
2023/03/03 03:21:06;;;;;;;30.47;16.47;;;5.90;99.90;;;;;;7392531;19;20147;-75
2023/03/03 03:23:33;;;;;;;28.47;15.80;;;6.10;99.90;;;;;;7391562;19;20779;-75
2023/03/03 03:25:58;;;;;;;29.43;15.57;;;6.10;99.90;;;;;;7390514;19;20115;-75
2023/03/03 03:28:24;;;;;;;28.67;15.37;;;6.10;99.90;;;;;;7392269;19;20150;-75
2023/03/03 03:30:50;;;;;;;28.07;15.80;;;6.10;99.90;;;;;;7389285;19;20153;-75
2023/03/03 03:33:16;;;;;;;28.80;15.73;;;6.20;99.90;;;;;;7390061;19;20154;-75
2023/03/03 03:35:45;;;;;;;26.20;15.00;;;6.20;99.90;;;;;;7388672;19;20503;-75
2023/03/03 03:38:12;;;;;;;29.67;15.80;;;6.20;99.90;;;;;;7388969;19;20157;-75
2023/03/03 03:40:39;;;;;;;29.43;16.07;;;6.30;99.90;;;;;;7388380;19;21253;-75
2023/03/03 03:43:05;;;;;;;30.10;16.33;;;6.30;99.90;;;;;;7386977;19;20359;-74
2023/03/03 03:45:31;;;;;;;26.53;15.33;;;6.30;99.90;;;;;;7384093;19;20210;-75
2023/03/03 03:47:57;;;;;;;30.57;16.87;;;6.50;99.90;;;;;;7390676;19;20157;-75
2023/03/03 03:50:23;;;;;;;25.80;15.80;;;6.20;99.90;;;;;;7390416;19;20767;-76
2023/03/03 03:52:49;;;;;;;30.20;17.53;;;6.30;99.90;;;;;;7388706;19;20153;-75
2023/03/03 03:55:15;;;;;;;29.00;15.47;;;6.30;99.90;;;;;;7385651;19;20647;-75
2023/03/03 03:57:41;;;;;;;26.67;15.03;;;6.30;99.90;;;;;;7389402;19;20146;-75
2023/03/03 04:00:09;;;;;;;29.47;16.30;;;6.30;99.90;;;;;;7388932;19;20903;-75
2023/03/03 04:02:35;;;;;;;32.57;18.30;;;5.90;99.90;;;;;;7389386;19;20539;-76
2023/03/03 04:05:01;;;;;;;34.00;18.17;;;5.80;99.90;;;;;;7384326;19;20150;-75
2023/03/03 04:07:27;;;;;;;31.73;18.10;;;6.00;99.90;;;;;;7387669;19;20618;-75
2023/03/03 04:09:52;;;;;;;35.00;18.37;;;5.90;99.90;;;;;;7388595;19;20254;-75
2023/03/03 04:12:18;;;;;;;29.33;17.83;;;6.10;99.90;;;;;;7389912;19;20141;-75
2023/03/03 04:14:44;;;;;;;33.20;19.07;;;6.30;99.90;;;;;;7387494;19;20147;-74
2023/03/03 04:17:30;;;;;;;30.47;17.10;;;6.10;99.90;;;;;;7386375;19;20139;-75
2023/03/03 04:19:59;;;;;;;33.53;19.67;;;5.70;99.90;;;;;;7386911;19;20154;-76
2023/03/03 04:22:24;;;;;;;33.07;19.13;;;5.90;99.90;;;;;;7389039;19;20155;-75
2023/03/03 04:24:50;;;;;;;35.43;18.73;;;5.90;99.90;;;;;;7388597;19;20156;-74
2023/03/03 04:27:16;;;;;;;34.07;18.43;;;6.10;99.90;;;;;;7388327;19;20142;-76
2023/03/03 04:29:42;;;;;;;36.60;18.20;;;6.10;99.90;;;;;;7387966;19;20607;-75
2023/03/03 04:32:08;;;;;;;36.77;18.80;;;6.20;99.90;;;;;;7388699;19;20146;-75
2023/03/03 04:34:34;;;;;;;33.20;18.80;;;6.40;99.90;;;;;;7386032;19;20131;-75
2023/03/03 04:37:00;;;;;;;30.83;17.80;;;6.20;99.90;;;;;;7388587;19;20147;-75
2023/03/03 04:39:27;;;;;;;37.97;19.47;;;6.30;99.90;;;;;;7385527;19;20139;-75
2023/03/03 04:41:53;;;;;;;32.27;19.10;;;6.20;99.90;;;;;;7386894;19;20174;-74
2023/03/03 04:44:19;;;;;;;36.03;20.13;;;6.10;99.90;;;;;;7387534;19;20636;-75
2023/03/03 04:46:45;;;;;;;35.27;19.13;;;6.10;99.90;;;;;;7388480;19;20162;-75
2023/03/03 04:49:10;;;;;;;35.80;19.03;;;6.20;99.90;;;;;;7386187;19;20159;-76
2023/03/03 04:51:36;;;;;;;34.77;18.87;;;6.30;99.90;;;;;;7388223;19;20142;-75
2023/03/03 04:54:02;;;;;;;33.53;19.43;;;6.30;99.90;;;;;;7385939;19;20154;-75
2023/03/03 04:56:30;;;;;;;33.70;19.27;;;6.20;99.90;;;;;;7387847;19;20146;-76
2023/03/03 04:58:56;;;;;;;35.40;20.33;;;6.30;99.90;;;;;;7386273;19;20150;-75
2023/03/03 05:01:24;;;;;;;34.77;19.83;;;6.30;99.90;;;;;;7388410;19;20630;-75
2023/03/03 05:03:50;;;;;;;37.23;20.37;;;6.20;99.90;;;;;;7386420;19;20178;-75
2023/03/03 05:06:17;;;;;;;35.87;19.07;;;6.20;99.90;;;;;;7388354;19;20600;-75
2023/03/03 05:08:44;;;;;;;33.17;18.10;;;6.20;99.90;;;;;;7387269;19;20142;-75
2023/03/03 05:11:10;;;;;;;33.53;18.50;;;6.30;99.90;;;;;;7387634;19;20143;-77
2023/03/03 05:13:36;;;;;;;37.33;18.40;;;6.30;99.90;;;;;;7386031;19;20139;-76
2023/03/03 05:16:02;;;;;;;34.03;19.50;;;6.20;99.90;;;;;;7388185;19;20131;-76
2023/03/03 05:18:28;;;;;;;33.57;18.30;;;6.20;99.90;;;;;;7385367;19;20150;-75
2023/03/03 05:20:54;;;;;;;33.17;18.60;;;6.10;99.90;;;;;;7385283;19;20759;-76
2023/03/03 05:23:20;;;;;;;38.43;20.47;;;6.00;99.90;;;;;;7388543;19;20134;-76
2023/03/03 05:25:47;;;;;;;38.40;20.07;;;6.10;99.90;;;;;;7384656;19;20162;-75
2023/03/03 05:28:13;;;;;;;31.00;18.43;;;6.10;99.90;;;;;;7385302;19;20148;-77
2023/03/03 05:30:39;;;;;;;32.53;19.07;;;6.10;99.90;;;;;;7384832;19;20123;-75
2023/03/03 05:33:06;;;;;;;37.93;20.00;;;6.30;99.90;;;;;;7385946;19;20153;-76
2023/03/03 05:35:35;;;;;;;34.90;18.43;;;6.30;99.90;;;;;;7382724;19;20153;-76
2023/03/03 05:38:01;;;;;;;36.27;20.47;;;6.10;99.90;;;;;;7386467;19;20526;-76
2023/03/03 05:40:27;;;;;;;34.53;19.43;;;6.10;99.90;;;;;;7386126;19;20507;-75
2023/03/03 05:42:53;;;;;;;35.60;19.00;;;6.20;99.90;;;;;;7382596;19;20635;-76
2023/03/03 05:45:20;;;;;;;32.43;18.97;;;6.30;99.90;;;;;;7384425;19;20154;-75
2023/03/03 05:47:47;;;;;;;33.60;18.77;;;6.30;99.90;;;;;;7386169;19;20173;-75
2023/03/03 05:50:13;;;;;;;37.90;18.93;;;6.20;99.90;;;;;;7384324;19;20286;-76
2023/03/03 05:52:39;;;;;;;38.60;19.03;;;6.20;99.90;;;;;;7384859;19;20147;-76
2023/03/03 05:55:05;;;;;;;33.97;19.57;;;6.10;99.90;;;;;;7391421;19;20740;-76
2023/03/03 05:57:31;;;;;;;36.07;17.77;;;6.10;99.90;;;;;;7392469;19;20139;-75
2023/03/03 05:59:57;;;;;;;36.93;19.27;;;6.10;99.90;;;;;;7391376;19;20590;-76
2023/03/03 06:02:23;;;;;;;32.73;18.10;;;6.00;99.90;;;;;;7391473;19;20145;-75
2023/03/03 06:04:48;;;;;;;29.13;16.70;;;6.10;99.90;;;;;;7390386;19;20151;-75
2023/03/03 06:07:14;;;;;;;29.87;16.83;;;6.20;99.90;;;;;;7390386;19;20497;-74
2023/03/03 06:09:40;;;;;;;33.50;16.73;;;6.20;99.90;;;;;;7391046;19;20143;-75
2023/03/03 06:12:06;;;;;;;30.60;16.97;;;6.20;99.90;;;;;;7391721;19;20165;-74
2023/03/03 06:14:32;;;;;;;31.70;16.50;;;6.10;99.90;;;;;;7393945;19;20226;-76
2023/03/03 06:16:57;;;;;;;27.87;15.03;;;6.10;99.90;;;;;;7392067;19;20250;-75
2023/03/03 06:19:25;;;;;;;31.90;16.80;;;5.90;99.90;;;;;;7390607;19;20495;-75
2023/03/03 06:21:50;;;;;;;30.47;16.93;;;6.00;99.90;;;;;;7393676;19;20142;-75
2023/03/03 06:24:16;;;;;;;28.90;16.43;;;6.00;99.90;;;;;;7390499;19;20142;-75
2023/03/03 06:26:42;;;;;;;27.40;15.37;;;6.10;99.90;;;;;;7390630;19;20214;-75
2023/03/03 06:29:08;;;;;;;34.87;16.37;;;6.00;99.90;;;;;;7390491;19;20146;-74
2023/03/03 06:31:34;;;;;;;29.37;15.67;;;5.90;99.90;;;;;;7389114;19;20139;-75
2023/03/03 06:34:00;;;;;;;27.17;15.43;;;5.90;99.90;;;;;;7391071;19;20233;-76
2023/03/03 06:36:26;;;;;;;25.77;15.00;;;6.00;99.90;;;;;;7390370;19;20580;-75
2023/03/03 06:38:51;;;;;;;32.67;16.20;;;6.00;99.90;;;;;;7389265;19;20217;-75
2023/03/03 06:41:17;;;;;;;33.63;16.73;;;6.10;99.90;;;;;;7391210;19;20188;-75
2023/03/03 06:43:43;;;;;;;29.33;16.27;;;6.10;99.90;;;;;;7389713;19;20531;-76
2023/03/03 06:46:09;;;;;;;27.53;15.53;;;5.90;99.90;;;;;;7390807;19;20145;-76
2023/03/03 06:48:34;;;;;;;24.87;15.37;;;5.70;99.90;;;;;;7391019;19;20174;-76
2023/03/03 06:51:02;;;;;;;27.50;15.43;;;6.00;99.90;;;;;;7387181;19;20165;-76
2023/03/03 06:53:31;;;;;;;31.17;16.27;;;6.10;99.90;;;;;;7387836;19;20138;-76
2023/03/03 06:55:57;;;;;;;31.93;14.70;;;6.10;99.90;;;;;;7390792;19;20153;-76
2023/03/03 06:58:28;;;;;;;26.87;15.13;;;6.30;99.90;;;;;;7387974;19;20145;-76
2023/03/03 07:00:57;;;;;;;28.23;15.37;;;6.30;99.90;;;;;;7390555;19;20139;-77
2023/03/03 07:03:26;;;;;;;25.20;15.73;;;6.30;99.90;;;;;;7387639;19;20170;-77
2023/03/03 07:05:52;;;;;;;32.23;17.63;;;6.30;99.90;;;;;;7390686;19;20122;-77
2023/03/03 07:08:21;;;;;;;29.73;16.37;;;6.30;99.90;;;;;;7388315;19;20935;-75
2023/03/03 07:10:48;;;;;;;27.63;16.20;;;6.20;99.90;;;;;;7391040;19;20491;-77
2023/03/03 07:13:26;;;;;;;24.53;14.77;;;6.00;99.90;;;;;;7392119;19;20240;-76
2023/03/03 07:15:53;;;;;;;25.83;14.67;;;6.20;99.90;;;;;;7391286;19;20229;-76
2023/03/03 07:18:56;;;;;;;30.60;15.93;;;6.20;99.90;;;;;;7388380;19;20150;-77
2023/03/03 07:21:25;;;;;;;27.90;15.47;;;6.20;99.90;;;;;;7389731;19;20141;-77
2023/03/03 07:23:52;;;;;;;29.33;16.43;;;6.30;99.90;;;;;;7390511;19;20587;-76
2023/03/03 07:26:27;;;;;;;34.57;16.77;;;6.20;99.90;;;;;;7388836;19;20239;-79
2023/03/03 07:28:58;;;;;;;25.77;15.13;;;6.20;99.90;;;;;;7391412;19;20154;-77
2023/03/03 07:31:30;;;;;;;29.93;15.43;;;6.20;99.90;;;;;;7391307;19;20218;-76
2023/03/03 07:33:58;;;;;;;29.30;15.00;;;6.20;99.90;;;;;;7388319;19;20174;-75
2023/03/03 07:36:30;;;;;;;28.03;15.13;;;6.00;99.90;;;;;;7390491;19;20138;-76
2023/03/03 07:39:02;;;;;;;26.00;15.07;;;6.20;99.90;;;;;;7388615;19;20153;-77
2023/03/03 07:41:29;;;;;;;26.33;14.83;;;6.10;99.90;;;;;;7394200;19;20170;-77
2023/03/03 07:44:04;;;;;;;29.73;14.90;;;6.30;99.90;;;;;;7387874;19;20446;-77
2023/03/03 07:46:34;;;;;;;27.70;15.57;;;6.50;99.90;;;;;;7390216;19;20550;-76
2023/03/03 07:49:00;;;;;;;28.63;14.77;;;6.50;99.90;;;;;;7389985;19;20599;-76
2023/03/03 07:51:40;;;;;;;23.17;13.40;;;6.60;99.90;;;;;;7389488;19;20222;-76
2023/03/03 07:54:24;;;;;;;28.37;15.30;;;6.60;99.90;;;;;;7386809;19;20610;-76
2023/03/03 07:56:51;;;;;;;33.60;16.13;;;6.60;99.90;;;;;;7387135;19;20646;-76
2023/03/03 07:59:23;;;;;;;26.13;14.97;;;6.60;99.90;;;;;;7388942;19;20138;-76
2023/03/03 08:01:55;;;;;;;28.50;14.83;;;6.60;99.90;;;;;;7389414;19;20135;-76
2023/03/03 08:04:40;;;;;;;25.60;14.57;;;6.70;99.90;;;;;;7388958;19;20146;-75
2023/03/03 08:07:16;;;;;;;27.77;15.20;;;6.80;99.90;;;;;;7387978;19;20160;-76
2023/03/03 08:09:43;;;;;;;26.87;14.47;;;6.80;99.90;;;;;;7389238;19;20174;-76
2023/03/03 08:12:15;;;;;;;26.80;14.87;;;6.90;99.90;;;;;;7388659;19;20170;-77
2023/03/03 08:14:41;;;;;;;29.47;14.90;;;6.90;99.90;;;;;;7388341;19;20150;-76
2023/03/03 08:17:18;;;;;;;29.03;14.57;;;6.90;99.90;;;;;;7385666;19;20158;-76
2023/03/03 08:19:44;;;;;;;25.53;14.47;;;7.10;99.90;;;;;;7387384;19;20142;-76
2023/03/03 08:22:34;;;;;;;27.00;14.87;;;7.10;99.90;;;;;;7387947;19;20248;-77
2023/03/03 08:25:00;;;;;;;29.13;14.40;;;7.20;99.90;;;;;;7388410;19;20134;-76
2023/03/03 08:27:26;;;;;;;27.87;14.63;;;7.30;99.90;;;;;;7386938;19;20155;-75
2023/03/03 08:29:52;;;;;;;25.40;14.27;;;7.40;99.90;;;;;;7389094;19;20230;-76
2023/03/03 08:32:18;;;;;;;28.80;15.40;;;7.60;99.90;;;;;;7387989;19;20859;-75
2023/03/03 08:34:44;;;;;;;25.27;14.87;;;7.40;99.90;;;;;;7389136;19;20150;-78
2023/03/03 08:37:09;;;;;;;28.43;15.80;;;7.20;99.90;;;;;;7388562;19;20563;-76
2023/03/03 08:39:36;;;;;;;23.67;13.70;;;7.00;99.90;;;;;;7388025;19;20164;-76
2023/03/03 08:42:02;;;;;;;27.87;14.97;;;7.00;99.90;;;;;;7385104;19;20604;-76
2023/03/03 08:44:28;;;;;;;30.90;14.77;;;7.00;99.90;;;;;;7386771;19;20170;-77
2023/03/03 08:46:54;;;;;;;29.07;15.10;;;6.90;99.90;;;;;;7386495;19;20153;-77
2023/03/03 08:49:20;;;;;;;28.17;15.37;;;6.70;99.90;;;;;;7387232;19;20150;-77
2023/03/03 08:51:46;;;;;;;31.73;15.77;;;7.00;99.90;;;;;;7387899;19;20139;-77
2023/03/03 08:54:12;;;;;;;25.87;15.17;;;6.90;99.90;;;;;;7389407;19;20161;-78
2023/03/03 08:56:38;;;;;;;28.33;15.20;;;6.90;99.90;;;;;;7387101;19;20564;-77
2023/03/03 08:59:04;;;;;;;28.70;16.00;;;7.00;99.90;;;;;;7385701;19;20145;-76
2023/03/03 09:01:31;;;;;;;25.40;15.73;;;7.00;99.90;;;;;;7386746;19;20154;-77
2023/03/03 09:03:57;;;;;;;27.77;15.60;;;6.90;99.90;;;;;;7386574;19;20142;-77
2023/03/03 09:06:23;;;;;;;25.77;15.27;;;7.20;99.90;;;;;;7387309;19;20138;-78
2023/03/03 09:08:49;;;;;;;27.63;15.43;;;7.30;99.90;;;;;;7386276;19;20161;-78
2023/03/03 09:11:22;;;;;;;28.13;15.87;;;7.40;99.90;;;;;;7388179;19;20139;-76
2023/03/03 09:13:52;;;;;;;26.17;15.57;;;7.30;99.90;;;;;;7388128;19;20142;-78
2023/03/03 09:16:20;;;;;;;30.07;15.97;;;7.30;99.90;;;;;;7387941;19;20158;-78
2023/03/03 09:18:46;;;;;;;29.20;15.27;;;7.30;99.90;;;;;;7388090;19;20131;-77
2023/03/03 09:21:25;;;;;;;25.17;14.13;;;7.30;99.90;;;;;;7385907;19;20254;-76
2023/03/03 09:23:57;;;;;;;25.87;15.17;;;7.30;99.90;;;;;;7389481;19;20176;-78
2023/03/03 09:26:29;;;;;;;22.70;13.63;;;7.60;99.90;;;;;;7391199;19;20624;-77
2023/03/03 09:29:13;;;;;;;27.97;14.07;;;7.90;99.90;;;;;;7390927;19;20161;-77
2023/03/03 09:31:52;;;;;;;24.90;14.93;;;8.20;99.90;;;;;;7394311;19;20293;-76
2023/03/03 09:34:41;;;;;;;22.30;13.50;;;8.40;99.90;;;;;;7393564;19;20142;-77
2023/03/03 09:37:32;;;;;;;25.10;14.17;;;8.40;99.90;;;;;;7393691;19;20134;-76
2023/03/03 09:39:58;;;;;;;23.03;13.97;;;8.40;99.90;;;;;;7394712;19;20511;-77
2023/03/03 09:42:55;;;;;;;24.30;14.27;;;8.60;99.90;;;;;;7392827;19;20193;-77
2023/03/03 09:45:47;;;;;;;24.27;13.10;;;8.60;99.90;;;;;;7393625;19;20171;-78
2023/03/03 09:48:26;;;;;;;32.73;17.63;;;8.90;99.90;;;;;;7392741;19;20151;-76
2023/03/03 09:51:29;;;;;;;24.80;14.57;;;8.90;99.90;;;;;;7395251;19;20130;-78
2023/03/03 09:54:03;;;;;;;25.00;14.43;;;8.90;99.90;;;;;;7392236;19;21161;-77
2023/03/03 09:56:58;;;;;;;24.57;14.27;;;8.90;99.90;;;;;;7392717;19;20140;-76
2023/03/03 09:59:42;;;;;;;22.67;14.17;;;8.60;99.90;;;;;;7392072;19;20131;-77
2023/03/03 10:02:22;;;;;;;26.13;14.33;;;8.60;99.90;;;;;;7393055;19;20138;-78
2023/03/03 10:05:10;;;;;;;24.53;14.50;;;8.50;99.90;;;;;;7397323;19;20553;-77
2023/03/03 10:08:18;;;;;;;26.00;14.80;;;8.50;99.90;;;;;;7404380;19;20466;-77
2023/03/03 10:11:00;;;;;;;24.40;13.87;;;8.80;99.90;;;;;;7391380;19;20510;-77
2023/03/03 10:13:29;;;;;;;22.83;13.87;;;9.10;99.90;;;;;;7393383;19;20207;-77
2023/03/03 10:16:32;;;;;;;23.57;13.87;;;9.10;99.90;;;;;;7393713;19;20730;-78
2023/03/03 10:19:08;;;;;;;23.60;14.57;;;9.30;99.90;;;;;;7390841;19;20151;-77
2023/03/03 10:22:18;;;;;;;23.80;14.20;;;9.50;99.90;;;;;;7391919;19;20150;-76
2023/03/03 10:24:59;;;;;;;23.37;14.80;;;9.50;99.90;;;;;;7391410;19;20545;-77
2023/03/03 10:27:46;;;;;;;25.10;15.47;;;9.30;99.90;;;;;;7391738;19;20661;-76
2023/03/03 10:30:17;;;;;;;26.30;15.80;;;9.10;99.90;;;;;;7392992;19;20157;-75
2023/03/03 10:33:25;;;;;;;23.80;13.83;;;9.00;99.90;;;;;;7401523;19;20387;-78
2023/03/03 10:36:15;;;;;;;25.60;13.93;;;8.80;99.90;;;;;;7391501;19;20511;-80
2023/03/03 10:39:09;;;;;;;26.90;15.07;;;8.70;99.90;;;;;;7389649;19;20518;-77
2023/03/03 10:42:03;;;;;;;24.67;15.33;;;9.00;99.90;;;;;;7394527;19;20246;-77
2023/03/03 10:44:41;;;;;;;24.77;15.87;;;9.20;99.90;;;;;;7395058;19;20194;-77
2023/03/03 10:47:22;;;;;;;24.03;14.67;;;9.10;99.90;;;;;;7392872;19;20138;-76
2023/03/03 10:50:15;;;;;;;25.57;15.50;;;8.80;99.90;;;;;;7395806;19;20134;-77
2023/03/03 10:53:14;;;;;;;25.03;15.23;;;9.10;99.90;;;;;;7402539;19;20174;-77
2023/03/03 10:55:48;;;;;;;26.07;14.67;;;9.30;99.90;;;;;;7402567;19;20142;-77
2023/03/03 10:58:32;;;;;;;26.37;15.43;;;9.00;99.90;;;;;;7395563;19;20478;-76
2023/03/03 11:01:16;;;;;;;24.33;14.30;;;9.40;99.90;;;;;;7390400;19;20138;-77
2023/03/03 11:04:07;;;;;;;23.10;14.17;;;9.50;99.90;;;;;;7396830;19;20138;-76
2023/03/03 11:06:49;;;;;;;24.07;14.40;;;9.30;99.90;;;;;;7389574;19;20143;-76
2023/03/03 11:10:04;;;;;;;26.60;15.60;;;9.40;99.90;;;;;;7389209;19;20900;-78
2023/03/03 11:13:07;;;;;;;23.50;14.77;;;9.40;99.90;;;;;;7391851;19;20142;-78
2023/03/03 11:16:14;;;;;;;28.53;15.87;;;9.20;99.90;;;;;;7392184;19;20146;-77
2023/03/03 11:18:43;;;;;;;24.40;15.13;;;9.50;99.90;;;;;;7389130;19;20144;-77
2023/03/03 11:21:22;;;;;;;23.90;15.30;;;9.60;99.90;;;;;;7389788;19;20138;-77
2023/03/03 11:24:18;;;;;;;26.33;16.40;;;9.60;99.90;;;;;;7391536;19;20620;-78
2023/03/03 11:27:18;;;;;;;30.17;17.03;;;9.60;99.90;;;;;;7390098;19;20157;-77
2023/03/03 11:29:44;;;;;;;28.77;15.50;;;9.40;99.90;;;;;;7390653;19;20155;-77
2023/03/03 11:32:47;;;;;;;25.87;15.63;;;9.50;99.90;;;;;;7391056;19;20583;-77
2023/03/03 11:35:30;;;;;;;24.00;14.40;;;9.50;99.90;;;;;;7390396;19;20142;-78
2023/03/03 11:38:44;;;;;;;28.83;16.70;;;9.70;99.90;;;;;;7390367;19;20131;-77
2023/03/03 11:41:21;;;;;;;28.33;16.77;;;9.50;99.90;;;;;;7387755;19;20171;-78
2023/03/03 11:44:26;;;;;;;24.77;15.67;;;9.60;99.90;;;;;;7393012;19;20182;-76
2023/03/03 11:46:59;;;;;;;22.83;14.10;;;9.70;99.90;;;;;;7389710;19;20169;-77
2023/03/03 11:49:46;;;;;;;26.50;15.17;;;9.60;99.90;;;;;;7390831;19;20214;-76
2023/03/03 11:52:43;;;;;;;24.67;15.13;;;9.60;99.90;;;;;;7385592;19;20138;-77
2023/03/03 11:55:18;;;;;;;26.87;15.53;;;9.60;99.90;;;;;;7388454;19;20745;-78
2023/03/03 11:57:59;;;;;;;25.13;14.50;;;9.50;99.90;;;;;;7390329;19;20229;-78
2023/03/03 12:00:31;;;;;;;25.03;15.57;;;9.60;99.90;;;;;;7388975;19;20532;-76
2023/03/03 12:03:19;;;;;;;22.57;14.43;;;9.70;99.90;;;;;;7387837;19;20252;-77
2023/03/03 12:05:57;;;;;;;24.47;15.17;;;9.80;99.90;;;;;;7391618;19;20163;-77
2023/03/03 12:08:35;;;;;;;23.17;14.70;;;9.80;99.90;;;;;;7387562;19;20146;-79
2023/03/03 12:11:31;;;;;;;24.40;14.47;;;9.90;99.90;;;;;;7388445;19;20466;-77
2023/03/03 12:14:06;;;;;;;27.80;14.43;;;9.90;99.90;;;;;;7387960;19;20138;-78
2023/03/03 12:16:58;;;;;;;24.70;15.17;;;10.20;99.90;;;;;;7388031;19;20145;-79
2023/03/03 12:19:57;;;;;;;23.67;14.23;;;10.20;99.90;;;;;;7384666;19;20163;-77
2023/03/03 12:22:42;;;;;;;24.50;15.17;;;10.20;99.90;;;;;;7388229;19;20157;-77
2023/03/03 12:25:20;;;;;;;23.53;15.37;;;10.20;99.90;;;;;;7388497;19;20175;-77
2023/03/03 12:28:10;;;;;;;23.10;14.57;;;10.10;99.90;;;;;;7387357;19;20142;-77
2023/03/03 12:30:55;;;;;;;23.33;14.77;;;10.10;99.90;;;;;;7375922;19;20146;-77
2023/03/03 12:33:57;;;;;;;24.97;14.87;;;10.20;99.90;;;;;;7387022;19;20151;-77
2023/03/03 12:36:32;;;;;;;21.97;14.83;;;10.30;99.90;;;;;;7387649;19;20126;-78
2023/03/03 12:39:26;;;;;;;23.47;13.93;;;10.30;99.90;;;;;;7387032;19;20122;-77
2023/03/03 12:42:11;;;;;;;24.87;14.77;;;10.50;99.90;;;;;;7383742;19;20174;-78
2023/03/03 12:44:40;;;;;;;24.13;14.20;;;10.60;99.90;;;;;;7388629;19;20166;-78
2023/03/03 12:47:32;;;;;;;23.37;14.50;;;10.50;99.90;;;;;;7388065;19;20155;-77
2023/03/03 12:50:19;;;;;;;20.67;13.43;;;10.50;99.90;;;;;;7385882;19;20146;-78
2023/03/03 12:52:44;;;;;;;23.27;13.93;;;10.60;99.90;;;;;;7386657;19;20209;-81
2023/03/03 12:55:37;;;;;;;19.23;13.27;;;10.80;99.90;;;;;;7387502;19;20262;-81
2023/03/03 12:58:15;;;;;;;20.83;13.23;;;10.80;99.90;;;;;;7390470;19;20142;-82
2023/03/03 13:01:07;;;;;;;21.90;12.87;;;10.80;99.90;;;;;;7383902;19;20218;-81
2023/03/03 13:03:48;;;;;;;24.67;14.27;;;10.90;99.90;;;;;;7389721;19;20178;-82
2023/03/03 13:06:25;;;;;;;22.80;13.97;;;10.90;99.90;;;;;;7397194;19;20135;-81
2023/03/03 13:09:05;;;;;;;23.73;13.30;;;11.00;99.90;;;;;;7396314;19;20177;-83